sensor_id;sensor_type;location;lat;lon;timestamp;temperature;humidity
21216;DHT22;10765;50.954;5.322;2023-01-10T00:00:08;4.80;99.90
21216;DHT22;10765;50.954;5.322;2023-01-10T00:02:35;4.80;1.00
21216;DHT22;10765;50.954;5.322;2023-01-10T00:05:03;4.70;1.00
21216;DHT22;10765;50.954;5.322;2023-01-10T00:07:30;4.70;1.00
21216;DHT22;10765;50.954;5.322;2023-01-10T00:09:57;4.70;1.00
21216;DHT22;10765;50.954;5.322;2023-01-10T00:12:24;4.70;16.10
21216;DHT22;10765;50.954;5.322;2023-01-10T00:15:10;4.70;99.90
21216;DHT22;10765;50.954;5.322;2023-01-10T00:17:37;4.60;99.90
21216;DHT22;10765;50.954;5.322;2023-01-10T00:20:05;4.60;99.90
21216;DHT22;10765;50.954;5.322;2023-01-10T00:22:32;4.60;99.90
21216;DHT22;10765;50.954;5.322;2023-01-10T00:24:59;4.50;99.90
21216;DHT22;10765;50.954;5.322;2023-01-10T00:27:26;4.60;99.90
21216;DHT22;10765;50.954;5.322;2023-01-10T00:29:53;4.60;1.00
21216;DHT22;10765;50.954;5.322;2023-01-10T00:32:23;4.60;99.90
21216;DHT22;10765;50.954;5.322;2023-01-10T00:34:50;4.70;1.00
21216;DHT22;10765;50.954;5.322;2023-01-10T00:37:17;4.80;99.90
21216;DHT22;10765;50.954;5.322;2023-01-10T00:39:44;4.80;1.00
21216;DHT22;10765;50.954;5.322;2023-01-10T00:42:11;4.80;99.90
21216;DHT22;10765;50.954;5.322;2023-01-10T00:44:55;4.80;1.00
21216;DHT22;10765;50.954;5.322;2023-01-10T00:47:24;4.80;99.90
21216;DHT22;10765;50.954;5.322;2023-01-10T00:49:51;4.70;1.00
21216;DHT22;10765;50.954;5.322;2023-01-10T00:52:18;4.70;1.00
21216;DHT22;10765;50.954;5.322;2023-01-10T00:54:44;4.60;99.90
21216;DHT22;10765;50.954;5.322;2023-01-10T00:57:11;4.70;1.00
21216;DHT22;10765;50.954;5.322;2023-01-10T00:59:38;4.80;99.90
21216;DHT22;10765;50.954;5.322;2023-01-10T01:02:05;4.90;1.00
21216;DHT22;10765;50.954;5.322;2023-01-10T01:04:33;5.10;99.90
21216;DHT22;10765;50.954;5.322;2023-01-10T01:07:00;5.10;1.00
21216;DHT22;10765;50.954;5.322;2023-01-10T01:09:28;5.20;1.00
21216;DHT22;10765;50.954;5.322;2023-01-10T01:11:55;5.20;99.90
21216;DHT22;10765;50.954;5.322;2023-01-10T01:14:22;5.20;99.90
21216;DHT22;10765;50.954;5.322;2023-01-10T01:16:49;5.10;99.90
21216;DHT22;10765;50.954;5.322;2023-01-10T01:19:16;5.10;99.90
21216;DHT22;10765;50.954;5.322;2023-01-10T01:21:44;5.00;99.90
21216;DHT22;10765;50.954;5.322;2023-01-10T01:24:11;4.90;99.90
21216;DHT22;10765;50.954;5.322;2023-01-10T01:26:38;4.80;1.00
21216;DHT22;10765;50.954;5.322;2023-01-10T01:29:07;4.70;1.00
21216;DHT22;10765;50.954;5.322;2023-01-10T01:31:34;4.70;99.90
21216;DHT22;10765;50.954;5.322;2023-01-10T01:34:01;4.70;99.90
21216;DHT22;10765;50.954;5.322;2023-01-10T01:36:28;4.70;99.90
21216;DHT22;10765;50.954;5.322;2023-01-10T01:38:56;4.70;99.90
21216;DHT22;10765;50.954;5.322;2023-01-10T01:41:23;4.60;99.90
21216;DHT22;10765;50.954;5.322;2023-01-10T01:44:14;4.60;99.90
21216;DHT22;10765;50.954;5.322;2023-01-10T01:46:44;4.60;99.90
21216;DHT22;10765;50.954;5.322;2023-01-10T01:49:14;4.60;99.90
21216;DHT22;10765;50.954;5.322;2023-01-10T01:51:43;4.50;99.90
21216;DHT22;10765;50.954;5.322;2023-01-10T01:54:14;4.50;99.90
21216;DHT22;10765;50.954;5.322;2023-01-10T01:56:46;4.50;99.90
21216;DHT22;10765;50.954;5.322;2023-01-10T01:59:16;4.40;1.00
21216;DHT22;10765;50.954;5.322;2023-01-10T02:01:49;4.40;1.00
21216;DHT22;10765;50.954;5.322;2023-01-10T02:04:19;4.40;1.00
21216;DHT22;10765;50.954;5.322;2023-01-10T02:06:49;4.40;1.00
21216;DHT22;10765;50.954;5.322;2023-01-10T02:09:23;4.30;1.00
21216;DHT22;10765;50.954;5.322;2023-01-10T02:11:51;4.40;1.00
21216;DHT22;10765;50.954;5.322;2023-01-10T02:14:18;4.30;1.00
21216;DHT22;10765;50.954;5.322;2023-01-10T02:16:46;4.40;1.00
21216;DHT22;10765;50.954;5.322;2023-01-10T02:19:17;4.30;1.00
21216;DHT22;10765;50.954;5.322;2023-01-10T02:25:36;4.20;99.90
21216;DHT22;10765;50.954;5.322;2023-01-10T02:28:47;4.30;1.00
21216;DHT22;10765;50.954;5.322;2023-01-10T02:31:35;4.20;99.90
21216;DHT22;10765;50.954;5.322;2023-01-10T02:34:08;4.20;1.00
21216;DHT22;10765;50.954;5.322;2023-01-10T02:36:44;4.20;1.00
21216;DHT22;10765;50.954;5.322;2023-01-10T02:39:18;4.20;1.00
21216;DHT22;10765;50.954;5.322;2023-01-10T02:41:52;4.10;99.90
21216;DHT22;10765;50.954;5.322;2023-01-10T02:44:27;4.10;1.00
21216;DHT22;10765;50.954;5.322;2023-01-10T02:46:55;4.20;1.00
21216;DHT22;10765;50.954;5.322;2023-01-10T02:49:23;4.20;1.00
21216;DHT22;10765;50.954;5.322;2023-01-10T02:51:50;4.20;1.00
21216;DHT22;10765;50.954;5.322;2023-01-10T02:54:19;4.20;1.00
21216;DHT22;10765;50.954;5.322;2023-01-10T03:00:01;4.20;99.90
21216;DHT22;10765;50.954;5.322;2023-01-10T03:02:44;4.20;99.90
21216;DHT22;10765;50.954;5.322;2023-01-10T03:05:24;4.10;1.00
21216;DHT22;10765;50.954;5.322;2023-01-10T03:08:01;4.20;99.90
21216;DHT22;10765;50.954;5.322;2023-01-10T03:10:38;4.20;99.90
21216;DHT22;10765;50.954;5.322;2023-01-10T03:13:13;4.20;99.90
21216;DHT22;10765;50.954;5.322;2023-01-10T03:15:41;4.20;99.90
21216;DHT22;10765;50.954;5.322;2023-01-10T03:18:14;4.20;1.00
21216;DHT22;10765;50.954;5.322;2023-01-10T03:20:45;4.20;99.90
21216;DHT22;10765;50.954;5.322;2023-01-10T03:23:14;4.40;99.90
21216;DHT22;10765;50.954;5.322;2023-01-10T03:25:43;4.40;1.00
21216;DHT22;10765;50.954;5.322;2023-01-10T03:28:14;4.50;1.00
21216;DHT22;10765;50.954;5.322;2023-01-10T03:30:45;4.60;99.90
21216;DHT22;10765;50.954;5.322;2023-01-10T03:33:17;4.60;1.00
21216;DHT22;10765;50.954;5.322;2023-01-10T03:35:55;4.70;1.00
21216;DHT22;10765;50.954;5.322;2023-01-10T03:38:29;4.80;99.90
21216;DHT22;10765;50.954;5.322;2023-01-10T03:41:06;4.80;1.00
21216;DHT22;10765;50.954;5.322;2023-01-10T03:43:39;4.90;1.00
21216;DHT22;10765;50.954;5.322;2023-01-10T03:46:29;5.00;99.90
21216;DHT22;10765;50.954;5.322;2023-01-10T03:48:59;5.10;1.00
21216;DHT22;10765;50.954;5.322;2023-01-10T03:51:30;5.20;1.00
21216;DHT22;10765;50.954;5.322;2023-01-10T03:53:58;5.20;99.90
21216;DHT22;10765;50.954;5.322;2023-01-10T03:56:26;5.20;99.90
21216;DHT22;10765;50.954;5.322;2023-01-10T03:58:53;5.20;99.90
21216;DHT22;10765;50.954;5.322;2023-01-10T04:01:20;5.20;99.90
21216;DHT22;10765;50.954;5.322;2023-01-10T04:03:47;5.20;99.90
21216;DHT22;10765;50.954;5.322;2023-01-10T04:06:14;5.10;99.90
21216;DHT22;10765;50.954;5.322;2023-01-10T04:08:43;5.00;99.90
21216;DHT22;10765;50.954;5.322;2023-01-10T04:11:10;5.00;99.90
21216;DHT22;10765;50.954;5.322;2023-01-10T04:13:37;4.90;99.90
21216;DHT22;10765;50.954;5.322;2023-01-10T04:16:07;4.80;1.00
21216;DHT22;10765;50.954;5.322;2023-01-10T04:18:34;4.70;1.00
21216;DHT22;10765;50.954;5.322;2023-01-10T04:21:01;4.70;99.90
21216;DHT22;10765;50.954;5.322;2023-01-10T04:23:28;4.70;99.90
21216;DHT22;10765;50.954;5.322;2023-01-10T04:25:56;4.70;99.90
21216;DHT22;10765;50.954;5.322;2023-01-10T04:28:23;4.70;99.90
21216;DHT22;10765;50.954;5.322;2023-01-10T04:30:50;4.70;1.00
21216;DHT22;10765;50.954;5.322;2023-01-10T04:33:16;4.90;1.00
21216;DHT22;10765;50.954;5.322;2023-01-10T04:35:46;5.00;99.90
21216;DHT22;10765;50.954;5.322;2023-01-10T04:38:13;5.00;1.00
21216;DHT22;10765;50.954;5.322;2023-01-10T04:40:40;5.10;1.00
21216;DHT22;10765;50.954;5.322;2023-01-10T04:43:08;5.10;1.00
21216;DHT22;10765;50.954;5.322;2023-01-10T04:45:35;5.20;99.90
21216;DHT22;10765;50.954;5.322;2023-01-10T04:48:03;5.20;99.90
21216;DHT22;10765;50.954;5.322;2023-01-10T04:50:31;5.20;99.90
21216;DHT22;10765;50.954;5.322;2023-01-10T04:52:58;5.30;99.90
21216;DHT22;10765;50.954;5.322;2023-01-10T04:55:25;5.30;64.20
21216;DHT22;10765;50.954;5.322;2023-01-10T04:57:52;5.30;1.00
21216;DHT22;10765;50.954;5.322;2023-01-10T05:00:20;5.20;1.00
21216;DHT22;10765;50.954;5.322;2023-01-10T05:02:47;5.20;1.00
21216;DHT22;10765;50.954;5.322;2023-01-10T05:05:14;5.30;18.10
21216;DHT22;10765;50.954;5.322;2023-01-10T05:07:41;5.30;1.00
21216;DHT22;10765;50.954;5.322;2023-01-10T05:10:11;5.30;1.00
21216;DHT22;10765;50.954;5.322;2023-01-10T05:12:38;5.30;1.00
21216;DHT22;10765;50.954;5.322;2023-01-10T05:15:05;5.30;1.00
21216;DHT22;10765;50.954;5.322;2023-01-10T05:17:34;5.40;1.00
21216;DHT22;10765;50.954;5.322;2023-01-10T05:20:00;5.40;1.00
21216;DHT22;10765;50.954;5.322;2023-01-10T05:22:27;5.40;1.00
21216;DHT22;10765;50.954;5.322;2023-01-10T05:24:54;5.30;1.00
21216;DHT22;10765;50.954;5.322;2023-01-10T05:27:21;5.30;1.00
21216;DHT22;10765;50.954;5.322;2023-01-10T05:29:48;5.30;1.00
21216;DHT22;10765;50.954;5.322;2023-01-10T05:32:15;5.30;1.00
21216;DHT22;10765;50.954;5.322;2023-01-10T05:34:43;5.30;1.00
21216;DHT22;10765;50.954;5.322;2023-01-10T05:37:10;5.30;1.00
21216;DHT22;10765;50.954;5.322;2023-01-10T05:39:37;5.20;1.00
21216;DHT22;10765;50.954;5.322;2023-01-10T05:42:05;5.20;1.00
21216;DHT22;10765;50.954;5.322;2023-01-10T05:44:32;5.10;1.00
21216;DHT22;10765;50.954;5.322;2023-01-10T05:46:59;5.00;1.00
21216;DHT22;10765;50.954;5.322;2023-01-10T05:49:26;4.90;99.90
21216;DHT22;10765;50.954;5.322;2023-01-10T05:51:54;4.80;99.90
21216;DHT22;10765;50.954;5.322;2023-01-10T05:54:21;4.70;1.00
21216;DHT22;10765;50.954;5.322;2023-01-10T05:56:48;4.60;1.00
21216;DHT22;10765;50.954;5.322;2023-01-10T05:59:15;4.50;1.00
21216;DHT22;10765;50.954;5.322;2023-01-10T06:01:42;4.50;99.90
21216;DHT22;10765;50.954;5.322;2023-01-10T06:04:09;4.40;99.90
21216;DHT22;10765;50.954;5.322;2023-01-10T06:06:36;4.40;1.00
21216;DHT22;10765;50.954;5.322;2023-01-10T06:09:04;4.30;1.00
21216;DHT22;10765;50.954;5.322;2023-01-10T06:11:31;4.30;99.90
21216;DHT22;10765;50.954;5.322;2023-01-10T06:14:01;4.30;1.00
21216;DHT22;10765;50.954;5.322;2023-01-10T06:16:28;4.30;1.00
21216;DHT22;10765;50.954;5.322;2023-01-10T06:18:55;4.20;1.00
21216;DHT22;10765;50.954;5.322;2023-01-10T06:21:22;4.20;1.00
21216;DHT22;10765;50.954;5.322;2023-01-10T06:23:49;4.20;90.10
21216;DHT22;10765;50.954;5.322;2023-01-10T06:26:17;4.30;99.90
21216;DHT22;10765;50.954;5.322;2023-01-10T06:28:44;4.20;99.90
21216;DHT22;10765;50.954;5.322;2023-01-10T06:31:11;4.20;1.00
21216;DHT22;10765;50.954;5.322;2023-01-10T06:33:39;4.20;99.90
21216;DHT22;10765;50.954;5.322;2023-01-10T06:36:08;4.10;1.00
21216;DHT22;10765;50.954;5.322;2023-01-10T06:38:36;4.10;1.00
21216;DHT22;10765;50.954;5.322;2023-01-10T06:41:03;4.00;1.00
21216;DHT22;10765;50.954;5.322;2023-01-10T06:43:39;4.00;1.00
21216;DHT22;10765;50.954;5.322;2023-01-10T06:46:06;4.00;97.90
21216;DHT22;10765;50.954;5.322;2023-01-10T06:48:35;4.00;1.00
21216;DHT22;10765;50.954;5.322;2023-01-10T06:51:02;4.00;99.90
21216;DHT22;10765;50.954;5.322;2023-01-10T06:53:29;4.00;20.80
21216;DHT22;10765;50.954;5.322;2023-01-10T06:55:56;4.00;99.90
21216;DHT22;10765;50.954;5.322;2023-01-10T06:58:23;4.00;1.00
21216;DHT22;10765;50.954;5.322;2023-01-10T07:00:52;4.00;1.00
21216;DHT22;10765;50.954;5.322;2023-01-10T07:03:19;4.00;99.90
21216;DHT22;10765;50.954;5.322;2023-01-10T07:05:46;3.90;99.90
21216;DHT22;10765;50.954;5.322;2023-01-10T07:08:13;3.90;99.90
21216;DHT22;10765;50.954;5.322;2023-01-10T07:10:40;3.90;99.90
21216;DHT22;10765;50.954;5.322;2023-01-10T07:13:07;3.90;99.90
21216;DHT22;10765;50.954;5.322;2023-01-10T07:15:34;3.90;99.90
21216;DHT22;10765;50.954;5.322;2023-01-10T07:18:03;3.80;1.00
21216;DHT22;10765;50.954;5.322;2023-01-10T07:20:30;3.80;7.60
21216;DHT22;10765;50.954;5.322;2023-01-10T07:22:58;3.80;82.30
21216;DHT22;10765;50.954;5.322;2023-01-10T07:25:27;3.80;1.00
21216;DHT22;10765;50.954;5.322;2023-01-10T07:27:54;3.70;1.00
21216;DHT22;10765;50.954;5.322;2023-01-10T07:30:22;3.70;1.00
21216;DHT22;10765;50.954;5.322;2023-01-10T07:32:52;3.70;99.90
21216;DHT22;10765;50.954;5.322;2023-01-10T07:35:21;3.70;1.00
21216;DHT22;10765;50.954;5.322;2023-01-10T07:37:48;3.70;1.00
21216;DHT22;10765;50.954;5.322;2023-01-10T07:40:16;3.70;1.00
21216;DHT22;10765;50.954;5.322;2023-01-10T07:42:43;3.70;29.30
21216;DHT22;10765;50.954;5.322;2023-01-10T07:45:10;3.70;1.00
21216;DHT22;10765;50.954;5.322;2023-01-10T07:47:37;3.70;99.90
21216;DHT22;10765;50.954;5.322;2023-01-10T07:50:05;3.70;99.90
21216;DHT22;10765;50.954;5.322;2023-01-10T07:52:33;3.80;1.00
21216;DHT22;10765;50.954;5.322;2023-01-10T07:55:00;3.80;5.20
21216;DHT22;10765;50.954;5.322;2023-01-10T07:57:27;3.90;99.90
21216;DHT22;10765;50.954;5.322;2023-01-10T07:59:54;3.90;99.90
21216;DHT22;10765;50.954;5.322;2023-01-10T08:02:21;4.00;1.00
21216;DHT22;10765;50.954;5.322;2023-01-10T08:04:48;4.10;99.90
21216;DHT22;10765;50.954;5.322;2023-01-10T08:07:15;4.20;1.00
21216;DHT22;10765;50.954;5.322;2023-01-10T08:09:43;4.30;99.90
21216;DHT22;10765;50.954;5.322;2023-01-10T08:12:10;4.50;1.00
21216;DHT22;10765;50.954;5.322;2023-01-10T08:14:37;4.80;1.00
21216;DHT22;10765;50.954;5.322;2023-01-10T08:17:03;4.90;99.90
21216;DHT22;10765;50.954;5.322;2023-01-10T08:19:30;5.10;1.00
21216;DHT22;10765;50.954;5.322;2023-01-10T08:21:57;5.40;1.00
21216;DHT22;10765;50.954;5.322;2023-01-10T08:24:25;5.60;1.00
21216;DHT22;10765;50.954;5.322;2023-01-10T08:26:56;5.90;73.60
21216;DHT22;10765;50.954;5.322;2023-01-10T08:29:23;6.10;1.00
21216;DHT22;10765;50.954;5.322;2023-01-10T08:31:50;6.80;99.90
21216;DHT22;10765;50.954;5.322;2023-01-10T08:34:17;7.40;1.00
21216;DHT22;10765;50.954;5.322;2023-01-10T08:36:44;7.70;99.90
21216;DHT22;10765;50.954;5.322;2023-01-10T08:39:11;8.20;99.90
21216;DHT22;10765;50.954;5.322;2023-01-10T08:41:38;8.70;37.30
21216;DHT22;10765;50.954;5.322;2023-01-10T08:44:07;9.40;7.50
21216;DHT22;10765;50.954;5.322;2023-01-10T08:46:36;9.60;1.00
21216;DHT22;10765;50.954;5.322;2023-01-10T08:49:03;10.00;1.00
21216;DHT22;10765;50.954;5.322;2023-01-10T08:51:30;10.30;1.00
21216;DHT22;10765;50.954;5.322;2023-01-10T08:53:57;10.60;1.00
21216;DHT22;10765;50.954;5.322;2023-01-10T08:56:24;10.80;1.00
21216;DHT22;10765;50.954;5.322;2023-01-10T08:58:51;11.20;1.00
21216;DHT22;10765;50.954;5.322;2023-01-10T09:01:19;11.60;1.00
21216;DHT22;10765;50.954;5.322;2023-01-10T09:03:46;11.80;1.00
21216;DHT22;10765;50.954;5.322;2023-01-10T09:06:13;11.90;1.00
21216;DHT22;10765;50.954;5.322;2023-01-10T09:08:40;12.30;1.00
21216;DHT22;10765;50.954;5.322;2023-01-10T09:11:07;12.50;1.00
21216;DHT22;10765;50.954;5.322;2023-01-10T09:13:34;12.60;1.00
21216;DHT22;10765;50.954;5.322;2023-01-10T09:16:01;12.60;1.00
21216;DHT22;10765;50.954;5.322;2023-01-10T09:18:29;12.20;1.00
21216;DHT22;10765;50.954;5.322;2023-01-10T09:20:56;11.80;1.00
21216;DHT22;10765;50.954;5.322;2023-01-10T09:23:23;11.40;1.00
21216;DHT22;10765;50.954;5.322;2023-01-10T09:25:52;11.10;1.00
21216;DHT22;10765;50.954;5.322;2023-01-10T09:28:20;10.40;1.00
21216;DHT22;10765;50.954;5.322;2023-01-10T09:30:49;10.30;1.00
21216;DHT22;10765;50.954;5.322;2023-01-10T09:33:16;10.30;1.00
21216;DHT22;10765;50.954;5.322;2023-01-10T09:35:45;10.40;1.00
21216;DHT22;10765;50.954;5.322;2023-01-10T09:38:13;10.30;1.00
21216;DHT22;10765;50.954;5.322;2023-01-10T09:41:01;10.20;1.00
21216;DHT22;10765;50.954;5.322;2023-01-10T09:43:41;10.20;1.00
21216;DHT22;10765;50.954;5.322;2023-01-10T09:46:17;10.20;1.00
21216;DHT22;10765;50.954;5.322;2023-01-10T09:48:51;10.10;1.00
21216;DHT22;10765;50.954;5.322;2023-01-10T09:51:30;10.10;1.00
21216;DHT22;10765;50.954;5.322;2023-01-10T09:53:59;10.30;1.00
21216;DHT22;10765;50.954;5.322;2023-01-10T09:56:28;10.10;1.00
21216;DHT22;10765;50.954;5.322;2023-01-10T09:58:56;10.10;1.00
21216;DHT22;10765;50.954;5.322;2023-01-10T10:01:28;10.10;1.00
21216;DHT22;10765;50.954;5.322;2023-01-10T10:04:01;10.10;1.00
21216;DHT22;10765;50.954;5.322;2023-01-10T10:06:32;9.90;1.00
21216;DHT22;10765;50.954;5.322;2023-01-10T10:08:59;9.50;1.00
21216;DHT22;10765;50.954;5.322;2023-01-10T10:11:45;9.40;1.00
21216;DHT22;10765;50.954;5.322;2023-01-10T10:14:24;9.30;1.00
21216;DHT22;10765;50.954;5.322;2023-01-10T10:17:06;9.20;1.00
21216;DHT22;10765;50.954;5.322;2023-01-10T10:19:48;9.10;1.00
21216;DHT22;10765;50.954;5.322;2023-01-10T10:22:21;8.90;1.00
21216;DHT22;10765;50.954;5.322;2023-01-10T10:24:58;8.90;1.00
21216;DHT22;10765;50.954;5.322;2023-01-10T10:27:34;8.70;1.00
21216;DHT22;10765;50.954;5.322;2023-01-10T10:30:19;8.90;1.00
21216;DHT22;10765;50.954;5.322;2023-01-10T10:33:08;9.00;1.00
21216;DHT22;10765;50.954;5.322;2023-01-10T10:35:42;9.00;1.00
21216;DHT22;10765;50.954;5.322;2023-01-10T10:38:13;9.00;1.00
21216;DHT22;10765;50.954;5.322;2023-01-10T10:40:44;8.90;1.00
21216;DHT22;10765;50.954;5.322;2023-01-10T10:43:16;8.90;1.00
21216;DHT22;10765;50.954;5.322;2023-01-10T10:45:48;8.80;1.00
21216;DHT22;10765;50.954;5.322;2023-01-10T10:48:20;8.60;1.00
21216;DHT22;10765;50.954;5.322;2023-01-10T10:50:59;8.60;1.00
21216;DHT22;10765;50.954;5.322;2023-01-10T10:53:30;8.60;1.00
21216;DHT22;10765;50.954;5.322;2023-01-10T10:55:58;8.60;1.00
21216;DHT22;10765;50.954;5.322;2023-01-10T10:58:26;8.70;1.00
21216;DHT22;10765;50.954;5.322;2023-01-10T11:00:55;8.80;1.00
21216;DHT22;10765;50.954;5.322;2023-01-10T11:03:30;8.70;1.00
21216;DHT22;10765;50.954;5.322;2023-01-10T11:05:59;8.80;1.00
21216;DHT22;10765;50.954;5.322;2023-01-10T11:08:29;8.80;1.00
21216;DHT22;10765;50.954;5.322;2023-01-10T11:10:58;9.00;1.00
21216;DHT22;10765;50.954;5.322;2023-01-10T11:13:35;8.70;1.00
21216;DHT22;10765;50.954;5.322;2023-01-10T11:16:06;8.90;1.00
21216;DHT22;10765;50.954;5.322;2023-01-10T11:18:33;9.10;1.00
21216;DHT22;10765;50.954;5.322;2023-01-10T11:21:05;9.30;1.00
21216;DHT22;10765;50.954;5.322;2023-01-10T11:23:40;9.00;1.00
21216;DHT22;10765;50.954;5.322;2023-01-10T11:26:19;8.80;1.00
21216;DHT22;10765;50.954;5.322;2023-01-10T11:28:47;8.80;1.00
21216;DHT22;10765;50.954;5.322;2023-01-10T11:31:14;8.80;1.00
21216;DHT22;10765;50.954;5.322;2023-01-10T11:33:43;8.60;1.00
21216;DHT22;10765;50.954;5.322;2023-01-10T11:36:13;8.50;1.00
21216;DHT22;10765;50.954;5.322;2023-01-10T11:38:42;8.60;1.00
21216;DHT22;10765;50.954;5.322;2023-01-10T11:41:23;8.70;1.00
21216;DHT22;10765;50.954;5.322;2023-01-10T11:43:51;8.70;1.00
21216;DHT22;10765;50.954;5.322;2023-01-10T11:46:20;8.80;1.00
21216;DHT22;10765;50.954;5.322;2023-01-10T11:48:51;8.60;1.00
21216;DHT22;10765;50.954;5.322;2023-01-10T11:51:23;8.40;1.00
21216;DHT22;10765;50.954;5.322;2023-01-10T11:53:57;8.40;1.00
21216;DHT22;10765;50.954;5.322;2023-01-10T11:56:29;8.50;7.00
21216;DHT22;10765;50.954;5.322;2023-01-10T11:58:58;8.50;1.00
21216;DHT22;10765;50.954;5.322;2023-01-10T12:01:28;8.40;1.00
21216;DHT22;10765;50.954;5.322;2023-01-10T12:03:57;8.40;1.00
21216;DHT22;10765;50.954;5.322;2023-01-10T12:06:24;8.50;1.00
21216;DHT22;10765;50.954;5.322;2023-01-10T12:08:53;8.40;1.00
21216;DHT22;10765;50.954;5.322;2023-01-10T12:11:26;8.40;1.00
21216;DHT22;10765;50.954;5.322;2023-01-10T12:13:56;8.50;1.00
21216;DHT22;10765;50.954;5.322;2023-01-10T12:16:24;8.50;1.00
21216;DHT22;10765;50.954;5.322;2023-01-10T12:18:53;8.60;1.00
21216;DHT22;10765;50.954;5.322;2023-01-10T12:21:25;8.50;1.00
21216;DHT22;10765;50.954;5.322;2023-01-10T12:23:58;8.50;1.00
21216;DHT22;10765;50.954;5.322;2023-01-10T12:26:29;8.60;1.00
21216;DHT22;10765;50.954;5.322;2023-01-10T12:29:00;8.50;1.00
21216;DHT22;10765;50.954;5.322;2023-01-10T12:31:31;8.50;1.00
21216;DHT22;10765;50.954;5.322;2023-01-10T12:34:03;8.30;1.00
21216;DHT22;10765;50.954;5.322;2023-01-10T12:36:40;8.30;1.00
21216;DHT22;10765;50.954;5.322;2023-01-10T12:39:13;8.30;1.00
21216;DHT22;10765;50.954;5.322;2023-01-10T12:41:52;8.40;1.00
21216;DHT22;10765;50.954;5.322;2023-01-10T12:44:39;8.30;1.00
21216;DHT22;10765;50.954;5.322;2023-01-10T12:47:16;8.30;1.00
21216;DHT22;10765;50.954;5.322;2023-01-10T12:49:49;8.30;1.00
21216;DHT22;10765;50.954;5.322;2023-01-10T12:52:26;8.30;1.00
21216;DHT22;10765;50.954;5.322;2023-01-10T12:54:56;8.30;1.00
21216;DHT22;10765;50.954;5.322;2023-01-10T12:57:29;8.20;1.00
21216;DHT22;10765;50.954;5.322;2023-01-10T12:59:59;8.30;1.00
21216;DHT22;10765;50.954;5.322;2023-01-10T13:02:33;8.30;1.00
21216;DHT22;10765;50.954;5.322;2023-01-10T13:05:03;8.20;1.00
21216;DHT22;10765;50.954;5.322;2023-01-10T13:07:33;8.30;1.00
21216;DHT22;10765;50.954;5.322;2023-01-10T13:10:04;8.20;1.00
21216;DHT22;10765;50.954;5.322;2023-01-10T13:12:34;8.30;1.00
21216;DHT22;10765;50.954;5.322;2023-01-10T13:15:05;8.30;1.00
21216;DHT22;10765;50.954;5.322;2023-01-10T13:17:41;8.10;1.00
21216;DHT22;10765;50.954;5.322;2023-01-10T13:20:37;7.70;59.00
21216;DHT22;10765;50.954;5.322;2023-01-10T13:23:22;7.40;99.90
21216;DHT22;10765;50.954;5.322;2023-01-10T13:26:02;7.20;99.90
21216;DHT22;10765;50.954;5.322;2023-01-10T13:28:31;7.00;1.00
21216;DHT22;10765;50.954;5.322;2023-01-10T13:31:00;6.90;1.00
21216;DHT22;10765;50.954;5.322;2023-01-10T13:33:29;6.80;99.90
21216;DHT22;10765;50.954;5.322;2023-01-10T13:36:05;6.80;1.00
21216;DHT22;10765;50.954;5.322;2023-01-10T13:38:38;6.70;99.90
21216;DHT22;10765;50.954;5.322;2023-01-10T13:41:11;6.70;99.90
21216;DHT22;10765;50.954;5.322;2023-01-10T13:44:05;6.80;99.90
21216;DHT22;10765;50.954;5.322;2023-01-10T13:46:40;6.60;99.90
21216;DHT22;10765;50.954;5.322;2023-01-10T13:49:42;6.60;99.90
21216;DHT22;10765;50.954;5.322;2023-01-10T13:52:30;6.50;1.00
21216;DHT22;10765;50.954;5.322;2023-01-10T13:55:00;6.50;1.00
21216;DHT22;10765;50.954;5.322;2023-01-10T13:57:51;6.40;1.00
21216;DHT22;10765;50.954;5.322;2023-01-10T14:00:42;6.40;99.90
21216;DHT22;10765;50.954;5.322;2023-01-10T14:03:45;6.30;99.90
21216;DHT22;10765;50.954;5.322;2023-01-10T14:06:18;6.30;99.80
21216;DHT22;10765;50.954;5.322;2023-01-10T14:08:51;6.20;1.00
21216;DHT22;10765;50.954;5.322;2023-01-10T14:11:20;6.20;99.90
21216;DHT22;10765;50.954;5.322;2023-01-10T14:13:50;6.20;99.90
21216;DHT22;10765;50.954;5.322;2023-01-10T14:16:30;6.20;99.90
21216;DHT22;10765;50.954;5.322;2023-01-10T14:18:59;6.10;1.00
21216;DHT22;10765;50.954;5.322;2023-01-10T14:21:28;6.10;99.90
21216;DHT22;10765;50.954;5.322;2023-01-10T14:23:57;6.10;1.00
21216;DHT22;10765;50.954;5.322;2023-01-10T14:26:30;6.10;99.90
21216;DHT22;10765;50.954;5.322;2023-01-10T14:29:05;6.10;1.00
21216;DHT22;10765;50.954;5.322;2023-01-10T14:31:34;6.00;99.90
21216;DHT22;10765;50.954;5.322;2023-01-10T14:34:03;6.10;99.90
21216;DHT22;10765;50.954;5.322;2023-01-10T14:36:43;6.00;99.90
21216;DHT22;10765;50.954;5.322;2023-01-10T14:39:13;6.00;68.20
21216;DHT22;10765;50.954;5.322;2023-01-10T14:41:43;6.10;99.90
21216;DHT22;10765;50.954;5.322;2023-01-10T14:44:16;6.10;99.90
21216;DHT22;10765;50.954;5.322;2023-01-10T14:46:46;6.00;1.00
21216;DHT22;10765;50.954;5.322;2023-01-10T14:49:20;6.00;1.00
21216;DHT22;10765;50.954;5.322;2023-01-10T14:51:47;6.00;1.00
21216;DHT22;10765;50.954;5.322;2023-01-10T14:54:16;6.00;1.00
21216;DHT22;10765;50.954;5.322;2023-01-10T14:56:45;6.00;1.00
21216;DHT22;10765;50.954;5.322;2023-01-10T14:59:32;5.90;64.90
21216;DHT22;10765;50.954;5.322;2023-01-10T15:02:03;5.90;1.00
21216;DHT22;10765;50.954;5.322;2023-01-10T15:04:52;5.90;99.90
21216;DHT22;10765;50.954;5.322;2023-01-10T15:07:20;5.90;99.90
21216;DHT22;10765;50.954;5.322;2023-01-10T15:09:50;5.90;99.90
21216;DHT22;10765;50.954;5.322;2023-01-10T15:12:19;5.90;99.90
21216;DHT22;10765;50.954;5.322;2023-01-10T15:14:58;5.80;99.90
21216;DHT22;10765;50.954;5.322;2023-01-10T15:17:26;5.90;99.90
21216;DHT22;10765;50.954;5.322;2023-01-10T15:19:54;5.90;99.90
21216;DHT22;10765;50.954;5.322;2023-01-10T15:22:26;5.80;99.90
21216;DHT22;10765;50.954;5.322;2023-01-10T15:24:58;5.90;99.90
21216;DHT22;10765;50.954;5.322;2023-01-10T15:27:25;5.90;99.90
21216;DHT22;10765;50.954;5.322;2023-01-10T15:29:54;5.90;99.90
21216;DHT22;10765;50.954;5.322;2023-01-10T15:32:25;5.80;99.90
21216;DHT22;10765;50.954;5.322;2023-01-10T15:34:53;5.80;99.90
21216;DHT22;10765;50.954;5.322;2023-01-10T15:37:24;5.80;99.90
21216;DHT22;10765;50.954;5.322;2023-01-10T15:39:52;5.80;99.90
21216;DHT22;10765;50.954;5.322;2023-01-10T15:42:20;5.80;99.90
21216;DHT22;10765;50.954;5.322;2023-01-10T15:44:48;5.80;99.90
21216;DHT22;10765;50.954;5.322;2023-01-10T15:47:49;5.80;99.90
21216;DHT22;10765;50.954;5.322;2023-01-10T15:50:20;5.80;99.90
21216;DHT22;10765;50.954;5.322;2023-01-10T15:52:48;5.80;99.90
21216;DHT22;10765;50.954;5.322;2023-01-10T15:55:39;5.80;99.90
21216;DHT22;10765;50.954;5.322;2023-01-10T15:58:16;5.80;99.90
21216;DHT22;10765;50.954;5.322;2023-01-10T16:00:44;5.80;99.90
21216;DHT22;10765;50.954;5.322;2023-01-10T16:03:23;5.90;99.90
21216;DHT22;10765;50.954;5.322;2023-01-10T16:05:53;5.90;99.90
21216;DHT22;10765;50.954;5.322;2023-01-10T16:08:23;5.90;99.90
21216;DHT22;10765;50.954;5.322;2023-01-10T16:10:53;5.90;99.90
21216;DHT22;10765;50.954;5.322;2023-01-10T16:13:20;5.90;99.90
21216;DHT22;10765;50.954;5.322;2023-01-10T16:15:53;5.90;99.90
21216;DHT22;10765;50.954;5.322;2023-01-10T16:18:21;5.90;99.90
21216;DHT22;10765;50.954;5.322;2023-01-10T16:20:51;6.00;99.90
21216;DHT22;10765;50.954;5.322;2023-01-10T16:23:21;6.00;99.90